Time;durP1;ratioP1;P1;durP2;ratioP2;P2;SDS_P1;SDS_P2;PMS_P1;PMS_P2;Temp;Humidity;BMP_temperature;BMP_pressure;BME280_temperature;BME280_humidity;BME280_pressure;Samples;Min_cycle;Max_cycle;Signal;HPM_P1;HPM_P2
2022/08/20 00:02:26;;;;;;;1.02;1.02;;;19.30;99.90;;;;;;5043731;28;20195;-79
2022/08/20 00:04:53;;;;;;;1.10;1.00;;;19.30;99.90;;;;;;5042796;28;20269;-78
2022/08/20 00:07:20;;;;;;;1.00;1.00;;;19.30;99.90;;;;;;5042113;28;20195;-78
2022/08/20 00:09:47;;;;;;;0.95;0.95;;;19.30;99.90;;;;;;5038456;28;20219;-78
2022/08/20 00:12:17;;;;;;;0.85;0.85;;;19.30;99.90;;;;;;5039658;28;20199;-78
2022/08/20 00:14:44;;;;;;;1.02;1.00;;;19.30;99.90;;;;;;5043811;28;20222;-77
2022/08/20 00:17:11;;;;;;;1.00;1.00;;;19.30;99.90;;;;;;5045219;28;20211;-78
2022/08/20 00:19:40;;;;;;;1.20;1.10;;;19.30;99.90;;;;;;5044192;28;20223;-77
2022/08/20 00:22:07;;;;;;;0.90;0.90;;;19.20;99.90;;;;;;5037693;28;20207;-78
2022/08/20 00:24:34;;;;;;;1.33;1.20;;;19.10;99.90;;;;;;5040282;28;20226;-77
2022/08/20 00:27:01;;;;;;;1.00;1.00;;;19.00;99.90;;;;;;5039650;28;20257;-77
2022/08/20 00:29:29;;;;;;;1.05;1.00;;;19.00;99.90;;;;;;5043080;28;20227;-78
2022/08/20 00:31:56;;;;;;;0.90;0.90;;;19.10;99.90;;;;;;5045852;28;20203;-78
2022/08/20 00:34:23;;;;;;;1.00;1.00;;;19.10;99.90;;;;;;5048290;28;20217;-77
2022/08/20 00:36:52;;;;;;;1.60;1.38;;;19.10;99.90;;;;;;5044447;28;20202;-78
2022/08/20 00:39:19;;;;;;;0.90;0.90;;;19.10;99.90;;;;;;5048586;28;20214;-78
2022/08/20 00:41:46;;;;;;;1.08;0.98;;;19.20;99.90;;;;;;5047615;28;20202;-77
2022/08/20 00:44:17;;;;;;;1.00;1.00;;;19.20;99.90;;;;;;5048085;28;20222;-77
2022/08/20 00:46:45;;;;;;;1.17;1.08;;;19.20;99.90;;;;;;5050713;28;20190;-79
2022/08/20 00:49:16;;;;;;;1.65;1.17;;;19.20;99.90;;;;;;5048798;28;20225;-77
2022/08/20 00:51:47;;;;;;;1.23;1.13;;;19.20;99.90;;;;;;5048407;28;20296;-77
2022/08/20 00:54:19;;;;;;;0.90;0.90;;;19.20;99.90;;;;;;5049413;28;20214;-78
2022/08/20 00:56:52;;;;;;;1.10;1.10;;;19.20;99.90;;;;;;5044499;28;20199;-79
2022/08/20 00:59:24;;;;;;;0.93;0.93;;;19.20;99.90;;;;;;5047370;28;20191;-77
2022/08/20 01:01:51;;;;;;;1.10;1.10;;;19.10;99.90;;;;;;5045297;28;20205;-77
2022/08/20 01:04:19;;;;;;;1.95;1.30;;;19.10;99.90;;;;;;5048612;28;20218;-77
2022/08/20 01:06:47;;;;;;;1.80;1.05;;;19.10;99.90;;;;;;5047658;28;20203;-79
2022/08/20 01:09:16;;;;;;;4.15;1.25;;;19.10;99.90;;;;;;5045262;28;20301;-77
2022/08/20 01:11:43;;;;;;;1.10;1.10;;;19.00;99.90;;;;;;5049528;28;20716;-77
2022/08/20 01:14:26;;;;;;;1.33;1.23;;;18.90;99.90;;;;;;5045783;28;20277;-76
2022/08/20 01:16:56;;;;;;;1.20;1.10;;;18.90;99.90;;;;;;5045707;28;20666;-78
2022/08/20 01:19:32;;;;;;;1.10;1.00;;;18.90;99.90;;;;;;5045269;28;20188;-77
2022/08/20 01:23:25;;;;;;;1.20;1.13;;;18.80;99.90;;;;;;5045997;28;20205;-79
2022/08/20 01:24:54;;;;;;;3.78;1.38;;;18.80;99.90;;;;;;5045752;28;20226;-76
2022/08/20 01:27:23;;;;;;;0.82;0.82;;;18.80;99.90;;;;;;5048291;28;20191;-77
2022/08/20 01:29:52;;;;;;;1.23;1.13;;;18.80;99.90;;;;;;5044998;28;20219;-79
2022/08/20 01:32:19;;;;;;;1.02;1.00;;;18.90;99.90;;;;;;5046198;28;20199;-78
2022/08/20 01:34:46;;;;;;;1.20;1.10;;;18.90;99.90;;;;;;5047752;28;20218;-77
2022/08/20 01:37:14;;;;;;;1.10;1.10;;;18.90;99.90;;;;;;5110218;22;20227;-76
2022/08/20 01:39:41;;;;;;;1.02;1.02;;;18.90;99.90;;;;;;5056495;28;20211;-76
2022/08/20 01:42:12;;;;;;;1.13;1.00;;;19.00;99.90;;;;;;5055140;28;20200;-77
2022/08/20 01:44:44;;;;;;;3.35;1.15;;;19.00;99.90;;;;;;5059123;28;20227;-76
2022/08/20 01:47:15;;;;;;;0.90;0.90;;;19.00;99.90;;;;;;5055155;28;20200;-76
2022/08/20 01:49:45;;;;;;;0.90;0.90;;;19.00;99.90;;;;;;5051112;28;20222;-76
2022/08/20 01:52:19;;;;;;;0.93;0.93;;;19.00;99.90;;;;;;5052676;28;20194;-77
2022/08/20 01:54:47;;;;;;;0.82;0.82;;;19.10;99.90;;;;;;5055411;28;20248;-77
2022/08/20 01:57:16;;;;;;;1.10;1.00;;;19.00;99.90;;;;;;5056204;28;20203;-77
2022/08/20 01:59:45;;;;;;;0.80;0.80;;;19.10;99.90;;;;;;5054008;28;20211;-77
2022/08/20 02:02:13;;;;;;;0.90;0.90;;;19.10;99.90;;;;;;5055226;28;20205;-77
2022/08/20 02:04:41;;;;;;;0.88;0.88;;;19.10;99.90;;;;;;5053130;28;20215;-77
2022/08/20 02:07:16;;;;;;;0.88;0.88;;;19.10;99.90;;;;;;5053198;28;20207;-76
2022/08/20 02:09:44;;;;;;;0.80;0.80;;;19.10;99.90;;;;;;5049495;28;20230;-77
2022/08/20 02:12:13;;;;;;;0.80;0.80;;;19.10;99.90;;;;;;5054235;28;20261;-77
2022/08/20 02:14:42;;;;;;;0.90;0.90;;;19.00;99.90;;;;;;5056401;28;20204;-77
2022/08/20 02:17:11;;;;;;;0.90;0.90;;;19.00;99.90;;;;;;5056488;28;20207;-77
2022/08/20 02:19:43;;;;;;;0.95;0.95;;;19.00;99.90;;;;;;5054425;28;20214;-76
2022/08/20 02:22:18;;;;;;;0.85;0.85;;;19.00;99.90;;;;;;5054923;28;20248;-76
2022/08/20 02:24:45;;;;;;;0.65;0.65;;;19.00;99.90;;;;;;5054536;28;20199;-77
2022/08/20 02:27:12;;;;;;;0.90;0.90;;;19.00;99.90;;;;;;5055275;28;20210;-77
2022/08/20 02:29:40;;;;;;;0.88;0.88;;;19.00;99.90;;;;;;5052963;28;20209;-77
2022/08/20 02:32:08;;;;;;;0.70;0.70;;;19.00;99.90;;;;;;5053738;28;20261;-76
2022/08/20 02:34:37;;;;;;;1.10;1.10;;;19.00;99.90;;;;;;5054063;28;20211;-77
2022/08/20 02:37:06;;;;;;;1.20;1.10;;;19.00;99.90;;;;;;5054374;28;20223;-77
2022/08/20 02:39:34;;;;;;;1.40;1.30;;;18.90;99.90;;;;;;5049949;28;20232;-76
2022/08/20 02:42:02;;;;;;;2.20;0.88;;;18.90;99.90;;;;;;5050849;28;20207;-76
2022/08/20 02:44:31;;;;;;;1.00;1.00;;;18.90;99.90;;;;;;5051671;28;20215;-77
2022/08/20 02:46:59;;;;;;;1.67;0.80;;;18.80;99.90;;;;;;5055008;28;20219;-77
2022/08/20 02:49:26;;;;;;;1.20;1.20;;;18.90;99.90;;;;;;5051630;28;20216;-77
2022/08/20 02:51:54;;;;;;;1.10;1.02;;;18.80;99.90;;;;;;5053743;28;20184;-77
2022/08/20 02:54:21;;;;;;;0.80;0.80;;;18.80;99.90;;;;;;5056540;28;20180;-76
2022/08/20 02:56:48;;;;;;;1.30;1.00;;;18.70;99.90;;;;;;5050822;28;20410;-77
2022/08/20 02:59:17;;;;;;;0.82;0.82;;;18.70;99.90;;;;;;5056204;28;20175;-77
2022/08/20 03:01:44;;;;;;;1.30;1.23;;;18.60;99.90;;;;;;5053280;28;20178;-77
2022/08/20 03:04:11;;;;;;;1.70;0.93;;;18.60;99.90;;;;;;5051544;28;20215;-77
2022/08/20 03:06:38;;;;;;;0.98;0.98;;;18.60;99.90;;;;;;5051377;28;20175;-77
2022/08/20 03:09:07;;;;;;;0.90;0.90;;;18.60;99.90;;;;;;5053896;28;20195;-77
2022/08/20 03:11:35;;;;;;;1.10;1.10;;;18.60;99.90;;;;;;5053994;28;20230;-76
2022/08/20 03:14:02;;;;;;;0.90;0.90;;;18.70;99.90;;;;;;5053135;28;20188;-77
2022/08/20 03:16:29;;;;;;;0.90;0.80;;;18.70;99.90;;;;;;5053306;28;20206;-76
2022/08/20 03:18:56;;;;;;;1.25;1.05;;;18.70;99.90;;;;;;5053125;28;20206;-77
2022/08/20 03:21:24;;;;;;;1.10;1.00;;;18.70;99.90;;;;;;5051693;28;20200;-76
2022/08/20 03:23:51;;;;;;;1.00;1.00;;;18.70;99.90;;;;;;5054906;28;20204;-77
2022/08/20 03:26:19;;;;;;;0.77;0.77;;;18.60;99.90;;;;;;5051662;28;20227;-76
2022/08/20 03:28:46;;;;;;;1.02;1.02;;;18.60;99.90;;;;;;5051594;28;20186;-77
2022/08/20 03:31:14;;;;;;;1.00;1.00;;;18.60;99.90;;;;;;5052702;28;20216;-77
2022/08/20 03:33:42;;;;;;;0.90;0.90;;;18.60;99.90;;;;;;5056711;28;20231;-76
2022/08/20 03:36:09;;;;;;;1.00;0.90;;;18.60;99.90;;;;;;5052313;28;20225;-77
2022/08/20 03:38:37;;;;;;;2.35;1.17;;;18.50;99.90;;;;;;5052669;28;20222;-76
2022/08/20 03:41:04;;;;;;;1.40;1.30;;;18.40;99.90;;;;;;5047904;28;20210;-77
2022/08/20 03:43:34;;;;;;;3.30;1.15;;;18.40;99.90;;;;;;5051232;28;20184;-77
2022/08/20 03:46:01;;;;;;;1.30;1.20;;;18.30;99.90;;;;;;5050219;28;20226;-77
2022/08/20 03:48:29;;;;;;;1.30;1.15;;;18.20;99.90;;;;;;5053908;28;20200;-77
2022/08/20 03:50:59;;;;;;;0.98;0.98;;;18.20;99.90;;;;;;5052501;28;20226;-77
2022/08/20 03:53:30;;;;;;;2.65;1.10;;;18.10;99.90;;;;;;5052883;28;20183;-77
2022/08/20 03:55:59;;;;;;;0.95;0.95;;;18.10;99.90;;;;;;5049142;28;20226;-77
2022/08/20 03:58:27;;;;;;;0.95;0.90;;;18.10;99.90;;;;;;5052779;28;20253;-76
2022/08/20 04:00:56;;;;;;;2.30;1.23;;;18.10;99.90;;;;;;5044196;28;20224;-77
2022/08/20 04:03:23;;;;;;;1.75;1.02;;;18.00;99.90;;;;;;5050362;28;20398;-77
2022/08/20 04:05:51;;;;;;;1.20;1.10;;;18.00;99.90;;;;;;5052878;28;20203;-77
2022/08/20 04:08:21;;;;;;;1.00;1.00;;;17.90;99.90;;;;;;5053030;28;20200;-75
2022/08/20 04:10:49;;;;;;;0.80;0.80;;;17.90;99.90;;;;;;5050745;28;20212;-77
2022/08/20 04:13:18;;;;;;;1.10;1.10;;;18.00;99.90;;;;;;5050951;28;20210;-76
2022/08/20 04:15:47;;;;;;;1.00;1.00;;;18.10;99.90;;;;;;5052687;28;20224;-76
2022/08/20 04:18:19;;;;;;;0.80;0.80;;;18.20;99.90;;;;;;5048536;28;20668;-76
2022/08/20 04:20:47;;;;;;;1.10;1.10;;;18.30;99.90;;;;;;5046917;28;20214;-75
2022/08/20 04:23:14;;;;;;;1.20;1.10;;;18.40;99.90;;;;;;5047141;28;20263;-77
2022/08/20 04:25:43;;;;;;;1.10;1.10;;;18.50;99.90;;;;;;5049506;28;20221;-77
2022/08/20 04:28:12;;;;;;;1.10;1.00;;;18.50;99.90;;;;;;5053125;28;20211;-77
2022/08/20 04:30:41;;;;;;;0.82;0.82;;;18.50;99.90;;;;;;5053558;28;20222;-77
2022/08/20 04:33:08;;;;;;;1.75;0.98;;;18.60;99.90;;;;;;5053011;28;20487;-76
2022/08/20 04:35:37;;;;;;;1.80;1.05;;;18.60;99.90;;;;;;5047171;28;20207;-77
2022/08/20 04:38:09;;;;;;;1.63;1.02;;;18.60;99.90;;;;;;5050434;28;20226;-76
2022/08/20 04:43:22;;;;;;;1.20;1.08;;;18.50;99.90;;;;;;5049643;28;20218;-76
2022/08/20 04:45:50;;;;;;;0.88;0.88;;;18.50;99.90;;;;;;5047472;28;20245;-76
2022/08/20 04:48:18;;;;;;;0.90;0.90;;;18.50;99.90;;;;;;5052214;28;20216;-75
2022/08/20 04:50:47;;;;;;;0.90;0.90;;;18.50;99.90;;;;;;5049350;28;20214;-77
2022/08/20 04:53:17;;;;;;;0.98;0.82;;;18.50;99.90;;;;;;5047396;28;20192;-77
2022/08/20 04:55:46;;;;;;;1.02;0.90;;;18.50;99.90;;;;;;5049264;28;20204;-77
2022/08/20 04:58:16;;;;;;;0.90;0.90;;;18.50;99.90;;;;;;5051896;28;20204;-77
2022/08/20 05:00:47;;;;;;;0.80;0.80;;;18.50;99.90;;;;;;5048383;28;20245;-77
2022/08/20 05:03:14;;;;;;;1.65;0.70;;;18.60;99.90;;;;;;5050627;28;20176;-77
2022/08/20 05:05:42;;;;;;;0.90;0.90;;;18.60;99.90;;;;;;5048834;28;20215;-76
2022/08/20 05:08:12;;;;;;;0.80;0.80;;;18.70;99.90;;;;;;5047436;28;20231;-76
2022/08/20 05:10:40;;;;;;;0.73;0.73;;;18.70;99.90;;;;;;5050535;28;20269;-76
2022/08/20 05:13:08;;;;;;;1.20;0.80;;;18.70;99.90;;;;;;5052159;28;20176;-77
2022/08/20 05:15:37;;;;;;;0.82;0.73;;;18.70;99.90;;;;;;5055100;28;20225;-77
2022/08/20 05:18:06;;;;;;;0.80;0.80;;;18.70;99.90;;;;;;5054339;28;20220;-77
2022/08/20 05:20:38;;;;;;;0.80;0.80;;;18.70;99.90;;;;;;5055856;28;20206;-76
2022/08/20 05:23:07;;;;;;;0.93;0.93;;;18.70;99.90;;;;;;5054428;28;20184;-76
2022/08/20 05:25:36;;;;;;;0.60;0.60;;;18.80;99.90;;;;;;5054335;28;20211;-76
2022/08/20 05:28:11;;;;;;;0.77;0.77;;;18.80;99.90;;;;;;5055731;28;20239;-77
2022/08/20 05:30:40;;;;;;;0.80;0.80;;;18.90;99.90;;;;;;5053099;28;20206;-76
2022/08/20 05:33:08;;;;;;;0.90;0.90;;;18.90;99.90;;;;;;5053388;28;20217;-76
2022/08/20 05:35:38;;;;;;;0.80;0.80;;;18.90;99.90;;;;;;5057392;28;20203;-76
2022/08/20 05:38:06;;;;;;;0.70;0.70;;;19.00;99.90;;;;;;5053793;28;20283;-77
2022/08/20 05:40:35;;;;;;;0.70;0.70;;;19.00;99.90;;;;;;5052529;28;20235;-77
2022/08/20 05:43:03;;;;;;;0.68;0.68;;;19.00;99.90;;;;;;5053790;28;20175;-77
2022/08/20 05:45:30;;;;;;;0.75;0.70;;;19.00;99.90;;;;;;5053696;28;20213;-76
2022/08/20 05:47:58;;;;;;;1.13;0.88;;;19.10;99.90;;;;;;5053787;28;20209;-76
2022/08/20 05:50:25;;;;;;;0.75;0.75;;;19.10;99.90;;;;;;5055338;28;20219;-76
2022/08/20 05:52:52;;;;;;;0.93;0.85;;;19.10;99.90;;;;;;5056427;28;20186;-77
2022/08/20 05:55:20;;;;;;;0.80;0.75;;;19.20;99.90;;;;;;5053082;28;20215;-76
2022/08/20 05:57:50;;;;;;;0.73;0.73;;;19.30;99.90;;;;;;5053700;28;20202;-77
2022/08/20 06:00:17;;;;;;;1.13;0.85;;;19.10;99.90;;;;;;5056272;28;20219;-77
2022/08/20 06:05:29;;;;;;;0.80;0.80;;;19.10;99.90;;;;;;5052221;28;20214;-77
2022/08/20 06:07:57;;;;;;;0.70;0.70;;;19.20;99.90;;;;;;5053102;28;20271;-77
2022/08/20 06:10:24;;;;;;;0.80;0.80;;;19.20;99.90;;;;;;5054869;28;20213;-77
2022/08/20 06:12:53;;;;;;;0.80;0.80;;;19.30;99.90;;;;;;5054961;28;20211;-77
2022/08/20 06:15:21;;;;;;;1.02;0.95;;;19.30;99.90;;;;;;5046224;28;20215;-77
2022/08/20 06:17:48;;;;;;;0.77;0.70;;;19.40;99.90;;;;;;5055651;28;20214;-77
2022/08/20 06:20:15;;;;;;;1.77;0.98;;;19.50;99.90;;;;;;5051756;28;20271;-77
2022/08/20 06:22:42;;;;;;;1.10;1.00;;;19.60;99.90;;;;;;5053613;28;20219;-77
2022/08/20 06:25:10;;;;;;;0.80;0.80;;;19.70;99.90;;;;;;5051172;28;20215;-76
2022/08/20 06:27:38;;;;;;;1.25;0.90;;;19.70;99.90;;;;;;5054100;28;20234;-77
2022/08/20 06:30:10;;;;;;;1.20;1.10;;;19.80;99.90;;;;;;5053797;28;20222;-77
2022/08/20 06:32:37;;;;;;;0.80;0.80;;;19.80;99.90;;;;;;5053945;28;20285;-76
2022/08/20 06:35:08;;;;;;;0.80;0.80;;;19.80;99.90;;;;;;5055422;28;20210;-76
2022/08/20 06:37:37;;;;;;;2.25;1.10;;;19.80;99.90;;;;;;5054319;28;20211;-77
2022/08/20 06:40:07;;;;;;;2.58;0.95;;;19.80;99.90;;;;;;5053002;28;20214;-77
2022/08/20 06:42:35;;;;;;;0.95;0.90;;;19.80;99.90;;;;;;5054290;28;20198;-77
2022/08/20 06:45:04;;;;;;;0.90;0.80;;;19.80;99.90;;;;;;5053018;28;20214;-77
2022/08/20 06:47:34;;;;;;;0.88;0.88;;;19.70;99.90;;;;;;5053199;28;20191;-77
2022/08/20 06:50:01;;;;;;;1.40;1.00;;;19.80;99.90;;;;;;5051560;28;20223;-76
2022/08/20 06:52:28;;;;;;;2.03;1.20;;;19.70;99.90;;;;;;5053958;28;20195;-76
2022/08/20 06:54:55;;;;;;;2.45;1.30;;;19.70;99.90;;;;;;5041074;28;20222;-76
2022/08/20 06:57:23;;;;;;;1.10;1.10;;;19.60;99.90;;;;;;5045244;28;20219;-77
2022/08/20 06:59:51;;;;;;;0.90;0.90;;;19.70;99.90;;;;;;5046046;28;20256;-76
2022/08/20 07:02:18;;;;;;;1.33;1.00;;;19.70;99.90;;;;;;5044566;28;20238;-76
2022/08/20 07:04:46;;;;;;;0.90;0.90;;;19.70;99.90;;;;;;5044094;28;20226;-76
2022/08/20 07:07:17;;;;;;;1.08;1.00;;;19.70;99.90;;;;;;5045197;28;20242;-76
2022/08/20 07:09:45;;;;;;;1.00;1.00;;;19.80;99.90;;;;;;5042576;28;20263;-77
2022/08/20 07:12:12;;;;;;;1.23;1.10;;;19.90;99.90;;;;;;5045078;28;20254;-76
2022/08/20 07:14:40;;;;;;;1.13;1.00;;;19.90;99.90;;;;;;5045853;28;20223;-76
2022/08/20 07:17:07;;;;;;;1.88;0.95;;;20.10;99.90;;;;;;5042553;28;20228;-76
2022/08/20 07:19:36;;;;;;;1.20;1.20;;;20.20;99.90;;;;;;5042151;28;20232;-76
2022/08/20 07:22:04;;;;;;;1.35;1.23;;;20.30;99.90;;;;;;5048623;28;20179;-77
2022/08/20 07:24:32;;;;;;;0.98;0.88;;;20.40;99.90;;;;;;5053422;28;20203;-77
2022/08/20 07:26:59;;;;;;;1.20;1.10;;;20.40;99.90;;;;;;5055067;28;20233;-77
2022/08/20 07:32:33;;;;;;;1.55;1.35;;;20.30;99.90;;;;;;5049938;28;20196;-77
2022/08/20 07:34:58;;;;;;;0.98;0.98;;;20.30;99.90;;;;;;5053677;28;20226;-77
2022/08/20 07:37:27;;;;;;;1.00;1.00;;;20.40;99.90;;;;;;5056229;28;20207;-77
2022/08/20 07:39:54;;;;;;;2.45;1.05;;;20.60;99.90;;;;;;5050793;28;20230;-77
2022/08/20 07:42:21;;;;;;;1.15;0.90;;;20.70;99.90;;;;;;5052051;28;20183;-77
2022/08/20 07:44:48;;;;;;;1.83;0.88;;;21.10;99.90;;;;;;5055082;28;20213;-76
2022/08/20 07:47:18;;;;;;;2.15;1.20;;;21.80;99.90;;;;;;5049991;28;20200;-77
2022/08/20 07:49:45;;;;;;;4.00;1.10;;;22.50;99.90;;;;;;5039278;28;20804;-76
2022/08/20 07:52:14;;;;;;;1.48;1.20;;;22.90;99.90;;;;;;5047209;28;20212;-76
2022/08/20 07:54:42;;;;;;;3.25;1.20;;;23.40;99.90;;;;;;5045506;22;20231;-78
2022/08/20 07:57:10;;;;;;;1.38;1.02;;;24.10;99.90;;;;;;5025620;28;20214;-78
2022/08/20 07:59:38;;;;;;;2.33;1.00;;;24.10;99.90;;;;;;5033348;28;20254;-77
2022/08/20 08:02:06;;;;;;;1.15;1.08;;;23.90;99.90;;;;;;5031782;28;20196;-78
2022/08/20 08:04:33;;;;;;;3.00;1.25;;;23.70;99.90;;;;;;5036042;28;20254;-78
2022/08/20 08:07:00;;;;;;;1.67;1.10;;;23.30;99.90;;;;;;5028902;28;20206;-78
2022/08/20 08:09:28;;;;;;;0.90;0.90;;;23.20;99.90;;;;;;5024088;28;20199;-78
2022/08/20 08:12:01;;;;;;;1.63;1.40;;;23.00;99.90;;;;;;5032689;28;20231;-78
2022/08/20 08:14:31;;;;;;;2.47;1.15;;;22.90;99.90;;;;;;5034412;28;20230;-78
2022/08/20 08:17:00;;;;;;;1.17;1.00;;;22.80;99.90;;;;;;5037566;28;20693;-79
2022/08/20 08:19:37;;;;;;;1.20;1.10;;;22.90;99.90;;;;;;5025837;28;20226;-78
2022/08/20 08:22:15;;;;;;;1.08;0.98;;;23.00;99.90;;;;;;5034679;28;20191;-78
2022/08/20 08:25:11;;;;;;;1.98;1.10;;;23.00;99.90;;;;;;5037770;28;20218;-78
2022/08/20 08:28:16;;;;;;;1.20;1.10;;;23.00;99.90;;;;;;5055711;28;20681;-79
2022/08/20 08:31:03;;;;;;;0.88;0.88;;;23.00;99.90;;;;;;5023613;28;20273;-78
2022/08/20 08:36:26;;;;;;;0.90;0.90;;;22.90;99.90;;;;;;5030134;28;20211;-77
2022/08/20 08:38:55;;;;;;;2.20;1.05;;;22.90;99.90;;;;;;5027944;28;20199;-78
2022/08/20 08:44:42;;;;;;;1.45;1.23;;;22.70;99.90;;;;;;5029245;28;20230;-78
2022/08/20 09:03:18;;;;;;;1.48;1.27;;;23.20;99.90;;;;;;5030802;28;20327;-79
2022/08/20 09:30:03;;;;;;;1.30;1.20;;;24.50;99.90;;;;;;4948797;29;20206;-80
2022/08/20 09:36:21;;;;;;;1.08;1.00;;;24.70;99.90;;;;;;4915085;28;20230;-81
2022/08/20 09:38:48;;;;;;;2.40;1.08;;;25.70;99.90;;;;;;5000687;28;20200;-79
2022/08/20 09:41:15;;;;;;;1.30;1.10;;;26.10;99.90;;;;;;5018445;28;20221;-79
2022/08/20 09:43:42;;;;;;;1.15;1.00;;;25.90;99.90;;;;;;5029793;28;20226;-79
2022/08/20 09:49:15;;;;;;;1.00;1.00;;;26.00;99.90;;;;;;5036200;28;20199;-79
2022/08/20 09:52:26;;;;;;;1.30;1.20;;;26.20;99.90;;;;;;4986411;28;20223;-78
2022/08/20 09:55:30;;;;;;;1.77;1.00;;;26.20;99.90;;;;;;5029700;28;20299;-77
2022/08/20 10:01:33;;;;;;;1.00;1.00;;;26.00;99.90;;;;;;5050824;28;20308;-77
2022/08/20 10:04:00;;;;;;;1.00;1.00;;;26.00;99.90;;;;;;5019009;28;20227;-76
2022/08/20 10:06:27;;;;;;;0.93;0.93;;;25.90;99.90;;;;;;5024207;28;20579;-78
2022/08/20 10:08:54;;;;;;;1.55;1.25;;;26.20;99.90;;;;;;5028568;28;20512;-78
2022/08/20 10:11:21;;;;;;;0.95;0.90;;;26.60;99.90;;;;;;5030041;28;20226;-76
2022/08/20 10:13:48;;;;;;;1.15;1.05;;;26.70;99.90;;;;;;5031228;28;20474;-75
2022/08/20 10:16:16;;;;;;;2.88;1.30;;;26.60;99.90;;;;;;5029257;28;20307;-76
2022/08/20 10:18:44;;;;;;;2.35;1.27;;;26.40;99.90;;;;;;5024349;28;20199;-73
2022/08/20 10:21:12;;;;;;;1.52;0.98;;;26.40;99.90;;;;;;5027574;28;20693;-76
2022/08/20 10:23:39;;;;;;;1.20;1.10;;;26.40;99.90;;;;;;5029012;28;20219;-73
2022/08/20 10:26:07;;;;;;;1.00;1.00;;;26.30;99.90;;;;;;5025008;28;20227;-74
2022/08/20 10:28:35;;;;;;;0.93;0.90;;;26.00;99.90;;;;;;5028455;28;20196;-74
2022/08/20 10:31:03;;;;;;;1.25;1.08;;;25.90;99.90;;;;;;5027780;28;20983;-75
2022/08/20 10:33:30;;;;;;;1.15;1.00;;;25.80;99.90;;;;;;5023266;28;20636;-74
2022/08/20 10:36:06;;;;;;;1.33;1.20;;;25.70;99.90;;;;;;5030515;28;20215;-76
2022/08/20 10:38:33;;;;;;;1.30;1.20;;;25.60;99.90;;;;;;5027762;28;20195;-75
2022/08/20 10:41:00;;;;;;;1.70;0.90;;;25.70;99.90;;;;;;5024490;28;20234;-74
2022/08/20 10:43:28;;;;;;;1.67;1.30;;;25.90;99.90;;;;;;5025895;28;20220;-74
2022/08/20 10:45:55;;;;;;;1.00;1.00;;;26.10;99.90;;;;;;5022205;28;20228;-74
2022/08/20 10:48:22;;;;;;;1.42;1.33;;;26.20;99.90;;;;;;5023226;28;20214;-78
2022/08/20 10:50:50;;;;;;;1.48;1.15;;;26.10;99.90;;;;;;5025872;28;20293;-75
2022/08/20 10:53:18;;;;;;;0.90;0.90;;;26.20;99.90;;;;;;5021682;28;20216;-75
2022/08/20 10:55:45;;;;;;;1.08;0.98;;;26.60;99.90;;;;;;5026600;28;20224;-75
2022/08/20 10:58:12;;;;;;;0.90;0.90;;;27.00;99.90;;;;;;5020949;28;20231;-75
2022/08/20 11:00:40;;;;;;;1.02;1.02;;;27.40;99.90;;;;;;5041492;28;20251;-75
2022/08/20 11:03:07;;;;;;;1.88;1.38;;;28.00;99.90;;;;;;5029559;28;20192;-76
2022/08/20 11:05:36;;;;;;;3.05;1.35;;;28.20;99.90;;;;;;5025011;28;20227;-74
2022/08/20 11:08:04;;;;;;;1.30;1.30;;;28.30;99.90;;;;;;5028091;28;20207;-76
2022/08/20 11:10:35;;;;;;;2.53;1.20;;;28.40;99.90;;;;;;5025307;28;20786;-75
2022/08/20 11:13:04;;;;;;;1.40;1.30;;;28.40;99.90;;;;;;5024541;28;20328;-75
2022/08/20 11:15:32;;;;;;;1.95;1.00;;;28.50;99.90;;;;;;5027240;28;20227;-76
2022/08/20 11:17:59;;;;;;;1.35;1.25;;;28.50;99.90;;;;;;5027996;28;20559;-76
2022/08/20 11:20:26;;;;;;;1.20;1.10;;;28.30;99.90;;;;;;5025145;28;20234;-75
2022/08/20 11:22:54;;;;;;;1.15;1.10;;;28.00;99.90;;;;;;5024976;28;20192;-76
2022/08/20 11:25:21;;;;;;;1.00;1.00;;;27.80;99.90;;;;;;5023000;28;20215;-77
2022/08/20 11:27:51;;;;;;;3.92;1.20;;;27.60;99.90;;;;;;5026638;28;20444;-77
2022/08/20 11:30:22;;;;;;;1.10;1.00;;;27.80;99.90;;;;;;5026347;28;20219;-77
2022/08/20 11:32:49;;;;;;;1.00;1.00;;;28.10;99.90;;;;;;5023053;28;20255;-77
2022/08/20 11:35:17;;;;;;;1.50;1.40;;;28.50;99.90;;;;;;5022682;28;20594;-78
2022/08/20 11:37:44;;;;;;;1.65;1.55;;;28.60;99.90;;;;;;5016644;28;20202;-76
2022/08/20 11:40:12;;;;;;;1.83;1.50;;;28.50;99.90;;;;;;5023822;28;20219;-76
2022/08/20 11:42:39;;;;;;;1.50;1.40;;;28.50;99.90;;;;;;5027497;28;20198;-79
2022/08/20 11:45:09;;;;;;;1.75;1.65;;;28.60;99.90;;;;;;5029753;28;20226;-77
2022/08/20 11:47:37;;;;;;;1.42;1.33;;;28.90;99.90;;;;;;5028666;28;20195;-79
2022/08/20 11:50:07;;;;;;;1.60;1.50;;;29.10;99.90;;;;;;5042389;28;20203;-80
2022/08/20 11:52:35;;;;;;;1.45;1.30;;;29.20;99.90;;;;;;5033599;28;20222;-77
2022/08/20 11:55:02;;;;;;;1.35;1.25;;;29.20;99.90;;;;;;5038101;28;20312;-78
2022/08/20 11:57:31;;;;;;;1.30;1.20;;;29.20;99.90;;;;;;5026593;28;20199;-79
2022/08/20 12:00:00;;;;;;;1.58;1.42;;;29.40;99.90;;;;;;5024453;28;20242;-77
2022/08/20 12:02:29;;;;;;;1.30;1.20;;;29.50;99.90;;;;;;5024903;28;20198;-78
2022/08/20 12:04:57;;;;;;;1.20;1.20;;;29.50;99.90;;;;;;5024411;28;20306;-78
2022/08/20 12:07:25;;;;;;;1.30;1.17;;;29.40;99.90;;;;;;5018918;28;20199;-78
2022/08/20 12:09:53;;;;;;;1.40;1.30;;;29.50;99.90;;;;;;5016217;28;20572;-79
2022/08/20 12:12:22;;;;;;;1.40;1.30;;;29.70;99.90;;;;;;5028813;28;20219;-79
2022/08/20 12:14:50;;;;;;;0.98;0.98;;;29.90;99.90;;;;;;5021814;28;20697;-78
2022/08/20 12:17:20;;;;;;;1.25;1.15;;;30.10;99.90;;;;;;5029649;28;20196;-79
2022/08/20 12:19:48;;;;;;;1.38;1.00;;;30.20;99.90;;;;;;5018657;28;20302;-77
2022/08/20 12:22:16;;;;;;;2.72;1.00;;;30.30;99.90;;;;;;5024056;28;20195;-78
2022/08/20 12:24:43;;;;;;;1.10;1.10;;;30.30;99.90;;;;;;5029713;28;20235;-78
2022/08/20 12:27:12;;;;;;;1.10;1.10;;;30.50;99.90;;;;;;5023845;28;20551;-77
2022/08/20 12:29:40;;;;;;;0.80;0.80;;;30.80;99.90;;;;;;5030781;28;20227;-80
2022/08/20 12:32:07;;;;;;;0.90;0.90;;;30.90;99.90;;;;;;5032278;28;20292;-78
2022/08/20 12:34:36;;;;;;;0.88;0.88;;;30.90;99.90;;;;;;5032732;28;20230;-79
2022/08/20 12:37:07;;;;;;;1.20;1.10;;;30.70;99.90;;;;;;5034409;28;20195;-78
2022/08/20 12:39:37;;;;;;;1.00;1.00;;;30.80;99.90;;;;;;5028844;28;20260;-79
2022/08/20 12:42:05;;;;;;;2.33;0.70;;;31.00;99.90;;;;;;5045642;28;20196;-80
2022/08/20 12:47:31;;;;;;;1.15;1.08;;;30.10;99.90;;;;;;5067105;22;20610;-78
2022/08/20 12:50:05;;;;;;;1.10;1.10;;;29.80;99.90;;;;;;5015560;28;20231;-78
2022/08/20 12:52:34;;;;;;;1.10;1.00;;;30.00;99.90;;;;;;5016280;28;20296;-78
2022/08/20 12:55:01;;;;;;;0.88;0.88;;;30.40;99.90;;;;;;5015019;28;20724;-78
2022/08/20 12:57:31;;;;;;;1.10;1.00;;;30.50;99.90;;;;;;5007703;28;20197;-79
2022/08/20 12:59:59;;;;;;;0.90;0.90;;;30.90;99.90;;;;;;5010731;28;20617;-78
2022/08/20 13:02:27;;;;;;;0.82;0.82;;;31.10;99.90;;;;;;5005873;28;20196;-78
2022/08/20 13:04:54;;;;;;;0.95;0.95;;;31.20;99.90;;;;;;5008381;28;20224;-79
2022/08/20 13:07:21;;;;;;;0.73;0.73;;;31.50;99.90;;;;;;5021238;28;20235;-78
2022/08/20 13:09:50;;;;;;;1.00;0.90;;;31.40;99.90;;;;;;5009998;28;20227;-76
2022/08/20 13:12:17;;;;;;;1.10;1.00;;;31.30;99.90;;;;;;5006570;28;20227;-77
2022/08/20 13:14:44;;;;;;;0.80;0.80;;;31.40;99.90;;;;;;5009333;28;20219;-77
2022/08/20 13:17:11;;;;;;;0.70;0.70;;;31.30;99.90;;;;;;5009709;28;20192;-77
2022/08/20 13:19:39;;;;;;;1.05;0.88;;;30.60;99.90;;;;;;5006181;28;20220;-78
2022/08/20 13:22:06;;;;;;;0.82;0.82;;;30.40;99.90;;;;;;5006068;28;20660;-77
2022/08/20 13:24:33;;;;;;;1.67;0.90;;;30.50;99.90;;;;;;5006126;28;20228;-77
2022/08/20 13:27:10;;;;;;;1.38;1.00;;;29.80;99.90;;;;;;5008987;28;20196;-77
2022/08/20 13:29:38;;;;;;;1.00;1.00;;;29.30;99.90;;;;;;5007937;28;20235;-77
2022/08/20 13:32:06;;;;;;;1.35;1.10;;;29.20;99.90;;;;;;5012589;28;20217;-78
2022/08/20 13:34:33;;;;;;;1.02;1.02;;;29.60;99.90;;;;;;5006250;28;20622;-78
2022/08/20 13:37:00;;;;;;;0.75;0.75;;;30.00;99.90;;;;;;5018508;28;20204;-75
2022/08/20 13:39:27;;;;;;;0.57;0.57;;;30.30;99.90;;;;;;5004913;28;20259;-77
2022/08/20 13:41:54;;;;;;;0.65;0.65;;;30.40;99.90;;;;;;5008283;28;20296;-77
2022/08/20 13:44:22;;;;;;;0.88;0.88;;;30.50;99.90;;;;;;5003927;28;20662;-78
2022/08/20 13:46:49;;;;;;;1.95;0.80;;;30.70;99.90;;;;;;5006814;28;20212;-77
2022/08/20 13:49:16;;;;;;;0.70;0.70;;;30.40;99.90;;;;;;5000921;28;20683;-78
2022/08/20 13:51:43;;;;;;;1.70;0.70;;;30.50;99.90;;;;;;5004397;28;20200;-75
2022/08/20 13:54:11;;;;;;;0.75;0.75;;;30.50;99.90;;;;;;4997380;28;20224;-78
2022/08/20 13:56:38;;;;;;;0.75;0.75;;;30.30;99.90;;;;;;5000504;28;20192;-78
2022/08/20 13:59:05;;;;;;;0.70;0.70;;;29.90;99.90;;;;;;5002516;28;20196;-76
2022/08/20 14:01:33;;;;;;;0.80;0.80;;;29.70;99.90;;;;;;5003092;28;20212;-78
2022/08/20 14:04:01;;;;;;;1.35;0.82;;;29.80;99.90;;;;;;5004507;28;20820;-77
2022/08/20 14:06:28;;;;;;;0.70;0.70;;;30.10;99.90;;;;;;5016517;22;20224;-76